sensor_id;sensor_type;location;lat;lon;timestamp;P1;durP1;ratioP1;P2;durP2;ratioP2
19800;SDS011;10060;48.274;12.214;2024-03-29T00:00:41;4.87;;;4.17;;
19800;SDS011;10060;48.274;12.214;2024-03-29T00:03:43;4.93;;;4.00;;
19800;SDS011;10060;48.274;12.214;2024-03-29T00:06:45;5.90;;;4.73;;
19800;SDS011;10060;48.274;12.214;2024-03-29T00:09:47;6.07;;;4.30;;
19800;SDS011;10060;48.274;12.214;2024-03-29T00:12:48;9.07;;;4.57;;
19800;SDS011;10060;48.274;12.214;2024-03-29T00:15:50;5.10;;;4.40;;
19800;SDS011;10060;48.274;12.214;2024-03-29T00:18:52;6.30;;;4.67;;
19800;SDS011;10060;48.274;12.214;2024-03-29T00:21:54;5.83;;;4.97;;
19800;SDS011;10060;48.274;12.214;2024-03-29T00:24:56;5.00;;;4.47;;
19800;SDS011;10060;48.274;12.214;2024-03-29T00:27:57;5.93;;;5.03;;
19800;SDS011;10060;48.274;12.214;2024-03-29T00:30:58;7.00;;;4.63;;
19800;SDS011;10060;48.274;12.214;2024-03-29T00:34:00;11.13;;;5.10;;
19800;SDS011;10060;48.274;12.214;2024-03-29T00:37:03;6.87;;;5.13;;
19800;SDS011;10060;48.274;12.214;2024-03-29T00:40:04;8.17;;;5.30;;
19800;SDS011;10060;48.274;12.214;2024-03-29T00:43:06;6.43;;;4.93;;
19800;SDS011;10060;48.274;12.214;2024-03-29T00:46:07;6.90;;;5.27;;
19800;SDS011;10060;48.274;12.214;2024-03-29T00:49:09;5.30;;;4.80;;
19800;SDS011;10060;48.274;12.214;2024-03-29T00:52:11;6.53;;;5.00;;
19800;SDS011;10060;48.274;12.214;2024-03-29T00:55:13;7.07;;;5.70;;
19800;SDS011;10060;48.274;12.214;2024-03-29T00:58:14;6.90;;;5.00;;
19800;SDS011;10060;48.274;12.214;2024-03-29T01:01:16;5.40;;;4.70;;
19800;SDS011;10060;48.274;12.214;2024-03-29T01:04:17;6.63;;;5.00;;
19800;SDS011;10060;48.274;12.214;2024-03-29T01:07:20;7.40;;;4.90;;
19800;SDS011;10060;48.274;12.214;2024-03-29T01:10:21;6.97;;;5.10;;
19800;SDS011;10060;48.274;12.214;2024-03-29T01:13:23;6.90;;;5.10;;
19800;SDS011;10060;48.274;12.214;2024-03-29T01:16:24;6.10;;;4.67;;
19800;SDS011;10060;48.274;12.214;2024-03-29T01:19:25;6.07;;;4.83;;
19800;SDS011;10060;48.274;12.214;2024-03-29T01:22:28;6.07;;;5.10;;
19800;SDS011;10060;48.274;12.214;2024-03-29T01:25:30;9.13;;;5.43;;
19800;SDS011;10060;48.274;12.214;2024-03-29T01:28:31;5.73;;;4.83;;
19800;SDS011;10060;48.274;12.214;2024-03-29T01:31:32;5.50;;;4.90;;
19800;SDS011;10060;48.274;12.214;2024-03-29T01:34:34;6.00;;;5.10;;
19800;SDS011;10060;48.274;12.214;2024-03-29T01:37:36;5.50;;;5.00;;
19800;SDS011;10060;48.274;12.214;2024-03-29T01:40:38;8.40;;;5.60;;
19800;SDS011;10060;48.274;12.214;2024-03-29T01:43:39;6.80;;;5.00;;
19800;SDS011;10060;48.274;12.214;2024-03-29T01:46:41;6.63;;;5.03;;
19800;SDS011;10060;48.274;12.214;2024-03-29T01:49:45;5.73;;;4.83;;
19800;SDS011;10060;48.274;12.214;2024-03-29T01:52:48;7.37;;;4.50;;
19800;SDS011;10060;48.274;12.214;2024-03-29T01:55:51;6.10;;;5.03;;
19800;SDS011;10060;48.274;12.214;2024-03-29T01:58:54;4.87;;;4.33;;
19800;SDS011;10060;48.274;12.214;2024-03-29T02:01:58;4.83;;;4.40;;
19800;SDS011;10060;48.274;12.214;2024-03-29T02:05:01;5.27;;;4.77;;
19800;SDS011;10060;48.274;12.214;2024-03-29T02:08:06;5.13;;;4.63;;
19800;SDS011;10060;48.274;12.214;2024-03-29T02:11:08;5.30;;;4.20;;
19800;SDS011;10060;48.274;12.214;2024-03-29T02:14:11;6.80;;;4.10;;
19800;SDS011;10060;48.274;12.214;2024-03-29T02:17:13;4.30;;;3.90;;
19800;SDS011;10060;48.274;12.214;2024-03-29T02:20:15;6.00;;;4.37;;
19800;SDS011;10060;48.274;12.214;2024-03-29T02:23:19;4.43;;;4.03;;
19800;SDS011;10060;48.274;12.214;2024-03-29T02:26:23;5.10;;;4.10;;
19800;SDS011;10060;48.274;12.214;2024-03-29T02:29:31;4.70;;;4.23;;
19800;SDS011;10060;48.274;12.214;2024-03-29T02:32:33;4.57;;;4.00;;
19800;SDS011;10060;48.274;12.214;2024-03-29T02:35:36;6.00;;;4.10;;
19800;SDS011;10060;48.274;12.214;2024-03-29T02:38:38;4.20;;;3.80;;
19800;SDS011;10060;48.274;12.214;2024-03-29T02:41:42;4.17;;;3.80;;
19800;SDS011;10060;48.274;12.214;2024-03-29T02:44:45;3.60;;;3.30;;
19800;SDS011;10060;48.274;12.214;2024-03-29T02:47:48;5.93;;;3.97;;
19800;SDS011;10060;48.274;12.214;2024-03-29T02:50:50;3.87;;;3.57;;
19800;SDS011;10060;48.274;12.214;2024-03-29T02:53:51;3.20;;;2.90;;
19800;SDS011;10060;48.274;12.214;2024-03-29T02:56:55;3.20;;;2.90;;
19800;SDS011;10060;48.274;12.214;2024-03-29T02:59:56;4.27;;;3.10;;
19800;SDS011;10060;48.274;12.214;2024-03-29T03:02:58;3.33;;;3.00;;
19800;SDS011;10060;48.274;12.214;2024-03-29T03:06:00;2.80;;;2.60;;
19800;SDS011;10060;48.274;12.214;2024-03-29T03:09:03;3.10;;;2.80;;
19800;SDS011;10060;48.274;12.214;2024-03-29T03:12:24;3.40;;;2.93;;
19800;SDS011;10060;48.274;12.214;2024-03-29T03:15:26;2.93;;;2.73;;
19800;SDS011;10060;48.274;12.214;2024-03-29T03:18:28;6.57;;;2.97;;
19800;SDS011;10060;48.274;12.214;2024-03-29T03:21:31;3.23;;;2.93;;
19800;SDS011;10060;48.274;12.214;2024-03-29T03:24:32;3.40;;;2.87;;
19800;SDS011;10060;48.274;12.214;2024-03-29T03:27:36;6.17;;;2.90;;
19800;SDS011;10060;48.274;12.214;2024-03-29T03:30:38;3.20;;;3.00;;
19800;SDS011;10060;48.274;12.214;2024-03-29T03:33:40;3.20;;;2.80;;
19800;SDS011;10060;48.274;12.214;2024-03-29T03:36:41;3.20;;;2.90;;
19800;SDS011;10060;48.274;12.214;2024-03-29T03:39:44;2.90;;;2.70;;
19800;SDS011;10060;48.274;12.214;2024-03-29T03:42:46;3.07;;;2.50;;
19800;SDS011;10060;48.274;12.214;2024-03-29T03:45:48;2.60;;;2.40;;
19800;SDS011;10060;48.274;12.214;2024-03-29T03:48:50;2.80;;;2.60;;
19800;SDS011;10060;48.274;12.214;2024-03-29T03:51:52;2.50;;;2.30;;
19800;SDS011;10060;48.274;12.214;2024-03-29T03:54:54;2.60;;;2.40;;
19800;SDS011;10060;48.274;12.214;2024-03-29T03:57:57;2.40;;;2.20;;
19800;SDS011;10060;48.274;12.214;2024-03-29T04:01:03;3.03;;;2.73;;
19800;SDS011;10060;48.274;12.214;2024-03-29T04:04:04;2.50;;;2.30;;
19800;SDS011;10060;48.274;12.214;2024-03-29T04:07:06;2.63;;;2.43;;
19800;SDS011;10060;48.274;12.214;2024-03-29T04:10:09;3.00;;;2.73;;
19800;SDS011;10060;48.274;12.214;2024-03-29T04:13:13;3.00;;;2.70;;
19800;SDS011;10060;48.274;12.214;2024-03-29T04:16:14;3.00;;;2.80;;
19800;SDS011;10060;48.274;12.214;2024-03-29T04:19:16;2.70;;;2.50;;
19800;SDS011;10060;48.274;12.214;2024-03-29T04:22:18;3.10;;;2.70;;
19800;SDS011;10060;48.274;12.214;2024-03-29T04:25:20;2.83;;;2.63;;
19800;SDS011;10060;48.274;12.214;2024-03-29T04:28:23;3.27;;;2.70;;
19800;SDS011;10060;48.274;12.214;2024-03-29T04:31:25;2.90;;;2.50;;
19800;SDS011;10060;48.274;12.214;2024-03-29T04:34:26;2.77;;;2.57;;
19800;SDS011;10060;48.274;12.214;2024-03-29T04:37:28;2.37;;;2.20;;
19800;SDS011;10060;48.274;12.214;2024-03-29T04:40:31;2.47;;;2.27;;
19800;SDS011;10060;48.274;12.214;2024-03-29T04:43:34;2.70;;;2.50;;
19800;SDS011;10060;48.274;12.214;2024-03-29T04:46:37;2.97;;;2.40;;
19800;SDS011;10060;48.274;12.214;2024-03-29T04:49:39;4.70;;;2.63;;
19800;SDS011;10060;48.274;12.214;2024-03-29T04:52:41;2.50;;;2.30;;
19800;SDS011;10060;48.274;12.214;2024-03-29T04:55:44;2.50;;;2.30;;
19800;SDS011;10060;48.274;12.214;2024-03-29T04:58:49;2.77;;;2.57;;
19800;SDS011;10060;48.274;12.214;2024-03-29T05:01:52;4.23;;;2.30;;
19800;SDS011;10060;48.274;12.214;2024-03-29T05:04:55;2.40;;;2.20;;
19800;SDS011;10060;48.274;12.214;2024-03-29T05:07:58;2.50;;;2.20;;
19800;SDS011;10060;48.274;12.214;2024-03-29T05:11:00;2.40;;;2.20;;
19800;SDS011;10060;48.274;12.214;2024-03-29T05:14:04;5.00;;;2.40;;
19800;SDS011;10060;48.274;12.214;2024-03-29T05:17:06;2.70;;;2.50;;
19800;SDS011;10060;48.274;12.214;2024-03-29T05:20:09;2.83;;;2.40;;
19800;SDS011;10060;48.274;12.214;2024-03-29T05:23:11;3.80;;;2.23;;
19800;SDS011;10060;48.274;12.214;2024-03-29T05:26:14;2.50;;;2.30;;
19800;SDS011;10060;48.274;12.214;2024-03-29T05:29:18;4.17;;;2.20;;
19800;SDS011;10060;48.274;12.214;2024-03-29T05:32:20;2.60;;;2.20;;
19800;SDS011;10060;48.274;12.214;2024-03-29T05:35:22;2.17;;;2.00;;
19800;SDS011;10060;48.274;12.214;2024-03-29T05:38:25;2.50;;;2.30;;
19800;SDS011;10060;48.274;12.214;2024-03-29T05:41:27;2.43;;;2.30;;
19800;SDS011;10060;48.274;12.214;2024-03-29T05:44:32;2.40;;;2.23;;
19800;SDS011;10060;48.274;12.214;2024-03-29T05:47:34;3.03;;;2.23;;
19800;SDS011;10060;48.274;12.214;2024-03-29T05:50:36;2.37;;;2.17;;
19800;SDS011;10060;48.274;12.214;2024-03-29T05:53:39;2.37;;;2.17;;
19800;SDS011;10060;48.274;12.214;2024-03-29T05:56:41;2.20;;;2.10;;
19800;SDS011;10060;48.274;12.214;2024-03-29T05:59:45;2.50;;;2.30;;
19800;SDS011;10060;48.274;12.214;2024-03-29T06:02:47;2.07;;;1.97;;
19800;SDS011;10060;48.274;12.214;2024-03-29T06:05:50;2.20;;;2.10;;
19800;SDS011;10060;48.274;12.214;2024-03-29T06:08:52;2.67;;;2.47;;
19800;SDS011;10060;48.274;12.214;2024-03-29T06:11:54;2.50;;;2.30;;
19800;SDS011;10060;48.274;12.214;2024-03-29T06:14:58;2.70;;;2.50;;
19800;SDS011;10060;48.274;12.214;2024-03-29T06:18:18;2.50;;;2.30;;
19800;SDS011;10060;48.274;12.214;2024-03-29T06:21:20;2.70;;;2.50;;
19800;SDS011;10060;48.274;12.214;2024-03-29T06:24:23;3.50;;;2.50;;
19800;SDS011;10060;48.274;12.214;2024-03-29T06:27:25;2.40;;;2.20;;
19800;SDS011;10060;48.274;12.214;2024-03-29T06:30:28;2.43;;;2.23;;
19800;SDS011;10060;48.274;12.214;2024-03-29T06:33:31;2.47;;;2.27;;
19800;SDS011;10060;48.274;12.214;2024-03-29T06:36:33;2.50;;;2.30;;
19800;SDS011;10060;48.274;12.214;2024-03-29T06:39:37;2.37;;;2.17;;
19800;SDS011;10060;48.274;12.214;2024-03-29T06:42:39;2.53;;;2.37;;
19800;SDS011;10060;48.274;12.214;2024-03-29T06:45:43;2.03;;;1.93;;
19800;SDS011;10060;48.274;12.214;2024-03-29T06:48:45;2.00;;;1.90;;
19800;SDS011;10060;48.274;12.214;2024-03-29T06:51:49;2.10;;;2.00;;
19800;SDS011;10060;48.274;12.214;2024-03-29T06:54:51;1.90;;;1.80;;
19800;SDS011;10060;48.274;12.214;2024-03-29T06:57:53;1.70;;;1.60;;
19800;SDS011;10060;48.274;12.214;2024-03-29T07:00:57;1.70;;;1.60;;
19800;SDS011;10060;48.274;12.214;2024-03-29T07:03:59;4.60;;;2.00;;
19800;SDS011;10060;48.274;12.214;2024-03-29T07:07:02;1.40;;;1.30;;
19800;SDS011;10060;48.274;12.214;2024-03-29T07:10:04;1.50;;;1.40;;
19800;SDS011;10060;48.274;12.214;2024-03-29T07:13:06;1.73;;;1.63;;
19800;SDS011;10060;48.274;12.214;2024-03-29T07:16:11;1.73;;;1.37;;
19800;SDS011;10060;48.274;12.214;2024-03-29T07:19:13;2.23;;;1.50;;
19800;SDS011;10060;48.274;12.214;2024-03-29T07:22:16;1.77;;;1.67;;
19800;SDS011;10060;48.274;12.214;2024-03-29T07:25:20;1.80;;;1.70;;
19800;SDS011;10060;48.274;12.214;2024-03-29T07:28:22;2.33;;;1.87;;
19800;SDS011;10060;48.274;12.214;2024-03-29T07:31:26;1.93;;;1.83;;
19800;SDS011;10060;48.274;12.214;2024-03-29T07:34:28;2.93;;;2.00;;
19800;SDS011;10060;48.274;12.214;2024-03-29T07:37:30;1.93;;;1.83;;
19800;SDS011;10060;48.274;12.214;2024-03-29T07:40:32;3.50;;;2.00;;
19800;SDS011;10060;48.274;12.214;2024-03-29T07:43:38;2.10;;;2.00;;
19800;SDS011;10060;48.274;12.214;2024-03-29T07:46:42;1.90;;;1.80;;
19800;SDS011;10060;48.274;12.214;2024-03-29T07:49:47;1.80;;;1.63;;
19800;SDS011;10060;48.274;12.214;2024-03-29T07:52:49;2.17;;;2.00;;
19800;SDS011;10060;48.274;12.214;2024-03-29T07:55:51;2.30;;;2.10;;
19800;SDS011;10060;48.274;12.214;2024-03-29T07:58:54;2.40;;;2.13;;
19800;SDS011;10060;48.274;12.214;2024-03-29T08:01:58;2.40;;;2.03;;
19800;SDS011;10060;48.274;12.214;2024-03-29T08:05:02;1.90;;;1.80;;
19800;SDS011;10060;48.274;12.214;2024-03-29T08:08:05;2.57;;;2.37;;
19800;SDS011;10060;48.274;12.214;2024-03-29T08:11:07;4.20;;;2.20;;
19800;SDS011;10060;48.274;12.214;2024-03-29T08:14:10;2.40;;;2.20;;
19800;SDS011;10060;48.274;12.214;2024-03-29T08:17:14;4.43;;;2.30;;
19800;SDS011;10060;48.274;12.214;2024-03-29T08:20:17;2.00;;;1.90;;
19800;SDS011;10060;48.274;12.214;2024-03-29T08:23:19;2.53;;;2.20;;
19800;SDS011;10060;48.274;12.214;2024-03-29T08:26:21;2.30;;;2.10;;
19800;SDS011;10060;48.274;12.214;2024-03-29T08:29:24;2.40;;;2.03;;
19800;SDS011;10060;48.274;12.214;2024-03-29T08:32:28;2.37;;;2.17;;
19800;SDS011;10060;48.274;12.214;2024-03-29T08:35:31;2.53;;;2.23;;
19800;SDS011;10060;48.274;12.214;2024-03-29T08:38:33;2.00;;;1.80;;
19800;SDS011;10060;48.274;12.214;2024-03-29T08:41:36;2.20;;;1.70;;
19800;SDS011;10060;48.274;12.214;2024-03-29T08:44:39;1.40;;;1.30;;
19800;SDS011;10060;48.274;12.214;2024-03-29T08:47:42;1.67;;;1.50;;
19800;SDS011;10060;48.274;12.214;2024-03-29T08:50:45;1.37;;;1.27;;
19800;SDS011;10060;48.274;12.214;2024-03-29T08:53:47;1.43;;;1.33;;
19800;SDS011;10060;48.274;12.214;2024-03-29T08:56:50;2.03;;;1.80;;
19800;SDS011;10060;48.274;12.214;2024-03-29T08:59:52;2.77;;;1.47;;
19800;SDS011;10060;48.274;12.214;2024-03-29T09:02:56;1.50;;;1.40;;
19800;SDS011;10060;48.274;12.214;2024-03-29T09:05:58;1.53;;;1.43;;
19800;SDS011;10060;48.274;12.214;2024-03-29T09:09:00;1.63;;;1.50;;
19800;SDS011;10060;48.274;12.214;2024-03-29T09:12:03;1.63;;;1.53;;
19800;SDS011;10060;48.274;12.214;2024-03-29T09:15:06;1.33;;;1.23;;
19800;SDS011;10060;48.274;12.214;2024-03-29T09:18:14;2.30;;;1.30;;
19800;SDS011;10060;48.274;12.214;2024-03-29T09:21:23;2.00;;;1.40;;
19800;SDS011;10060;48.274;12.214;2024-03-29T09:24:25;1.70;;;1.60;;
19800;SDS011;10060;48.274;12.214;2024-03-29T09:27:28;2.40;;;1.50;;
19800;SDS011;10060;48.274;12.214;2024-03-29T09:30:32;3.07;;;1.37;;
19800;SDS011;10060;48.274;12.214;2024-03-29T09:33:36;12.17;;;8.33;;
19800;SDS011;10060;48.274;12.214;2024-03-29T09:36:38;2.43;;;2.03;;
19800;SDS011;10060;48.274;12.214;2024-03-29T09:39:40;37.77;;;22.27;;
19800;SDS011;10060;48.274;12.214;2024-03-29T09:42:43;15.30;;;8.90;;
19800;SDS011;10060;48.274;12.214;2024-03-29T09:45:45;2.70;;;2.10;;
19800;SDS011;10060;48.274;12.214;2024-03-29T09:48:49;140.87;;;66.80;;
19800;SDS011;10060;48.274;12.214;2024-03-29T09:51:53;33.03;;;19.97;;
19800;SDS011;10060;48.274;12.214;2024-03-29T09:54:56;45.70;;;22.83;;
19800;SDS011;10060;48.274;12.214;2024-03-29T09:57:58;1152.40;;;640.77;;
19800;SDS011;10060;48.274;12.214;2024-03-29T10:01:00;216.70;;;122.30;;
19800;SDS011;10060;48.274;12.214;2024-03-29T10:04:05;275.67;;;158.48;;
19800;SDS011;10060;48.274;12.214;2024-03-29T10:07:08;433.40;;;264.20;;
19800;SDS011;10060;48.274;12.214;2024-03-29T10:10:12;152.10;;;92.15;;
19800;SDS011;10060;48.274;12.214;2024-03-29T10:13:14;85.40;;;50.47;;
19800;SDS011;10060;48.274;12.214;2024-03-29T10:16:18;63.78;;;37.70;;
19800;SDS011;10060;48.274;12.214;2024-03-29T10:19:24;68.63;;;37.35;;
19800;SDS011;10060;48.274;12.214;2024-03-29T10:22:27;168.98;;;93.75;;
19800;SDS011;10060;48.274;12.214;2024-03-29T10:25:31;419.55;;;240.25;;
19800;SDS011;10060;48.274;12.214;2024-03-29T10:28:35;570.22;;;323.50;;
19800;SDS011;10060;48.274;12.214;2024-03-29T10:31:37;549.42;;;340.45;;
19800;SDS011;10060;48.274;12.214;2024-03-29T10:34:41;505.45;;;295.92;;
19800;SDS011;10060;48.274;12.214;2024-03-29T10:37:43;475.23;;;261.63;;
19800;SDS011;10060;48.274;12.214;2024-03-29T10:40:45;649.20;;;407.42;;
19800;SDS011;10060;48.274;12.214;2024-03-29T10:43:47;745.90;;;410.75;;
19800;SDS011;10060;48.274;12.214;2024-03-29T10:46:51;281.75;;;167.80;;
19800;SDS011;10060;48.274;12.214;2024-03-29T10:49:55;464.23;;;289.88;;
19800;SDS011;10060;48.274;12.214;2024-03-29T10:52:58;357.42;;;221.10;;
19800;SDS011;10060;48.274;12.214;2024-03-29T10:56:02;590.22;;;385.10;;
19800;SDS011;10060;48.274;12.214;2024-03-29T10:59:12;1184.25;;;670.25;;
19800;SDS011;10060;48.274;12.214;2024-03-29T11:02:16;718.70;;;425.98;;
19800;SDS011;10060;48.274;12.214;2024-03-29T11:05:24;241.30;;;155.05;;
19800;SDS011;10060;48.274;12.214;2024-03-29T11:08:27;48.65;;;29.17;;
19800;SDS011;10060;48.274;12.214;2024-03-29T11:11:34;4.40;;;2.88;;
19800;SDS011;10060;48.274;12.214;2024-03-29T11:14:40;85.03;;;49.28;;
19800;SDS011;10060;48.274;12.214;2024-03-29T11:17:44;717.72;;;473.58;;
19800;SDS011;10060;48.274;12.214;2024-03-29T11:20:48;835.47;;;509.55;;
19800;SDS011;10060;48.274;12.214;2024-03-29T11:23:52;378.83;;;220.65;;
19800;SDS011;10060;48.274;12.214;2024-03-29T11:26:55;235.35;;;126.13;;
19800;SDS011;10060;48.274;12.214;2024-03-29T11:29:57;704.58;;;426.25;;
19800;SDS011;10060;48.274;12.214;2024-03-29T11:33:00;658.95;;;427.40;;
19800;SDS011;10060;48.274;12.214;2024-03-29T11:36:11;626.30;;;378.98;;
19800;SDS011;10060;48.274;12.214;2024-03-29T11:39:19;1044.82;;;630.53;;
19800;SDS011;10060;48.274;12.214;2024-03-29T11:42:34;230.20;;;132.40;;
19800;SDS011;10060;48.274;12.214;2024-03-29T11:45:37;87.88;;;51.17;;
19800;SDS011;10060;48.274;12.214;2024-03-29T11:48:39;284.67;;;157.32;;
19800;SDS011;10060;48.274;12.214;2024-03-29T11:51:43;945.10;;;607.30;;
19800;SDS011;10060;48.274;12.214;2024-03-29T11:54:48;77.70;;;46.97;;
19800;SDS011;10060;48.274;12.214;2024-03-29T11:57:50;155.82;;;81.88;;
19800;SDS011;10060;48.274;12.214;2024-03-29T12:00:52;303.65;;;190.32;;
19800;SDS011;10060;48.274;12.214;2024-03-29T12:03:55;80.30;;;47.22;;
19800;SDS011;10060;48.274;12.214;2024-03-29T12:06:58;69.13;;;31.35;;
19800;SDS011;10060;48.274;12.214;2024-03-29T12:10:01;55.35;;;32.28;;
19800;SDS011;10060;48.274;12.214;2024-03-29T12:13:04;5.30;;;3.30;;
19800;SDS011;10060;48.274;12.214;2024-03-29T12:16:06;12.23;;;7.20;;
19800;SDS011;10060;48.274;12.214;2024-03-29T12:19:09;7.43;;;4.30;;
19800;SDS011;10060;48.274;12.214;2024-03-29T12:22:12;44.25;;;25.85;;
19800;SDS011;10060;48.274;12.214;2024-03-29T12:25:15;12.73;;;7.30;;
19800;SDS011;10060;48.274;12.214;2024-03-29T12:28:17;16.10;;;9.85;;
19800;SDS011;10060;48.274;12.214;2024-03-29T12:31:19;69.20;;;43.15;;
19800;SDS011;10060;48.274;12.214;2024-03-29T12:34:22;5.22;;;2.97;;
19800;SDS011;10060;48.274;12.214;2024-03-29T12:37:26;110.40;;;66.95;;
19800;SDS011;10060;48.274;12.214;2024-03-29T12:40:29;4.10;;;2.65;;
19800;SDS011;10060;48.274;12.214;2024-03-29T12:43:35;12.68;;;7.85;;
19800;SDS011;10060;48.274;12.214;2024-03-29T12:46:37;1.25;;;0.93;;
19800;SDS011;10060;48.274;12.214;2024-03-29T12:49:39;1.70;;;0.60;;
19800;SDS011;10060;48.274;12.214;2024-03-29T12:52:43;0.70;;;0.40;;
19800;SDS011;10060;48.274;12.214;2024-03-29T12:55:46;0.90;;;0.68;;
19800;SDS011;10060;48.274;12.214;2024-03-29T12:58:48;1.17;;;0.90;;
19800;SDS011;10060;48.274;12.214;2024-03-29T13:01:50;0.65;;;0.50;;
19800;SDS011;10060;48.274;12.214;2024-03-29T13:04:53;3.58;;;1.65;;
19800;SDS011;10060;48.274;12.214;2024-03-29T13:07:57;4.80;;;2.10;;
19800;SDS011;10060;48.274;12.214;2024-03-29T13:11:00;2.05;;;0.60;;
19800;SDS011;10060;48.274;12.214;2024-03-29T13:14:02;0.47;;;0.40;;
19800;SDS011;10060;48.274;12.214;2024-03-29T13:17:05;0.77;;;0.40;;
19800;SDS011;10060;48.274;12.214;2024-03-29T13:20:08;1.48;;;0.40;;
19800;SDS011;10060;48.274;12.214;2024-03-29T13:23:12;1.65;;;0.40;;
19800;SDS011;10060;48.274;12.214;2024-03-29T13:26:16;0.40;;;0.40;;
19800;SDS011;10060;48.274;12.214;2024-03-29T13:29:18;1.85;;;0.80;;
19800;SDS011;10060;48.274;12.214;2024-03-29T13:32:21;0.55;;;0.50;;
19800;SDS011;10060;48.274;12.214;2024-03-29T13:35:23;2.25;;;1.17;;
19800;SDS011;10060;48.274;12.214;2024-03-29T13:38:26;1.58;;;0.95;;
19800;SDS011;10060;48.274;12.214;2024-03-29T13:41:30;1.10;;;0.90;;
19800;SDS011;10060;48.274;12.214;2024-03-29T13:44:32;1.35;;;0.95;;
19800;SDS011;10060;48.274;12.214;2024-03-29T13:47:34;1.08;;;0.98;;
19800;SDS011;10060;48.274;12.214;2024-03-29T13:50:37;0.68;;;0.60;;
19800;SDS011;10060;48.274;12.214;2024-03-29T13:53:41;2.15;;;0.70;;
19800;SDS011;10060;48.274;12.214;2024-03-29T13:56:43;0.63;;;0.50;;
19800;SDS011;10060;48.274;12.214;2024-03-29T13:59:46;0.80;;;0.80;;
19800;SDS011;10060;48.274;12.214;2024-03-29T14:02:48;1.63;;;1.52;;
19800;SDS011;10060;48.274;12.214;2024-03-29T14:05:50;2.33;;;0.90;;
19800;SDS011;10060;48.274;12.214;2024-03-29T14:08:55;0.60;;;0.50;;
19800;SDS011;10060;48.274;12.214;2024-03-29T14:11:57;0.93;;;0.80;;
19800;SDS011;10060;48.274;12.214;2024-03-29T14:15:00;5.60;;;3.88;;
19800;SDS011;10060;48.274;12.214;2024-03-29T14:18:02;6.15;;;2.35;;
19800;SDS011;10060;48.274;12.214;2024-03-29T14:21:05;1.08;;;0.93;;
19800;SDS011;10060;48.274;12.214;2024-03-29T14:24:09;0.75;;;0.68;;
19800;SDS011;10060;48.274;12.214;2024-03-29T14:27:11;0.80;;;0.47;;
19800;SDS011;10060;48.274;12.214;2024-03-29T14:30:14;0.35;;;0.35;;
19800;SDS011;10060;48.274;12.214;2024-03-29T14:33:16;2.70;;;1.20;;
19800;SDS011;10060;48.274;12.214;2024-03-29T14:36:19;2.42;;;0.77;;
19800;SDS011;10060;48.274;12.214;2024-03-29T14:39:23;0.88;;;0.88;;
19800;SDS011;10060;48.274;12.214;2024-03-29T14:42:26;0.88;;;0.60;;
19800;SDS011;10060;48.274;12.214;2024-03-29T14:45:28;1.30;;;1.02;;
19800;SDS011;10060;48.274;12.214;2024-03-29T14:48:30;1.38;;;1.20;;
19800;SDS011;10060;48.274;12.214;2024-03-29T14:51:33;1.80;;;1.38;;
19800;SDS011;10060;48.274;12.214;2024-03-29T14:54:37;1.48;;;1.35;;
19800;SDS011;10060;48.274;12.214;2024-03-29T14:57:39;0.50;;;0.47;;
19800;SDS011;10060;48.274;12.214;2024-03-29T15:00:41;3.53;;;2.78;;
19800;SDS011;10060;48.274;12.214;2024-03-29T15:03:47;0.60;;;0.50;;
19800;SDS011;10060;48.274;12.214;2024-03-29T15:06:50;2.45;;;1.48;;
19800;SDS011;10060;48.274;12.214;2024-03-29T15:09:54;1.38;;;1.27;;
19800;SDS011;10060;48.274;12.214;2024-03-29T15:12:56;1.63;;;1.25;;
19800;SDS011;10060;48.274;12.214;2024-03-29T15:15:59;3.00;;;2.42;;
19800;SDS011;10060;48.274;12.214;2024-03-29T15:19:01;4.00;;;2.65;;
19800;SDS011;10060;48.274;12.214;2024-03-29T15:22:04;2.78;;;1.20;;
19800;SDS011;10060;48.274;12.214;2024-03-29T15:25:10;0.80;;;0.80;;
19800;SDS011;10060;48.274;12.214;2024-03-29T15:28:12;0.65;;;0.60;;
19800;SDS011;10060;48.274;12.214;2024-03-29T15:31:32;1.00;;;0.80;;
19800;SDS011;10060;48.274;12.214;2024-03-29T15:34:35;0.77;;;0.77;;
19800;SDS011;10060;48.274;12.214;2024-03-29T15:37:37;2.25;;;2.05;;
19800;SDS011;10060;48.274;12.214;2024-03-29T15:40:41;8.43;;;5.90;;
19800;SDS011;10060;48.274;12.214;2024-03-29T15:43:43;1.20;;;0.90;;
19800;SDS011;10060;48.274;12.214;2024-03-29T15:46:45;2.15;;;1.85;;
19800;SDS011;10060;48.274;12.214;2024-03-29T15:49:48;1.08;;;0.98;;
19800;SDS011;10060;48.274;12.214;2024-03-29T15:52:50;1.83;;;1.33;;
19800;SDS011;10060;48.274;12.214;2024-03-29T15:55:54;1.75;;;0.70;;
19800;SDS011;10060;48.274;12.214;2024-03-29T15:58:58;0.80;;;0.68;;
19800;SDS011;10060;48.274;12.214;2024-03-29T16:02:00;0.77;;;0.77;;
19800;SDS011;10060;48.274;12.214;2024-03-29T16:05:03;1.58;;;1.48;;
19800;SDS011;10060;48.274;12.214;2024-03-29T16:08:05;1.65;;;1.27;;
19800;SDS011;10060;48.274;12.214;2024-03-29T16:11:09;3.63;;;1.58;;
19800;SDS011;10060;48.274;12.214;2024-03-29T16:14:11;0.60;;;0.60;;
19800;SDS011;10060;48.274;12.214;2024-03-29T16:17:13;1.50;;;0.90;;
19800;SDS011;10060;48.274;12.214;2024-03-29T16:20:16;1.25;;;1.02;;
19800;SDS011;10060;48.274;12.214;2024-03-29T16:23:17;3.90;;;1.80;;
19800;SDS011;10060;48.274;12.214;2024-03-29T16:26:20;2.47;;;1.15;;
19800;SDS011;10060;48.274;12.214;2024-03-29T16:29:22;8.88;;;1.52;;
19800;SDS011;10060;48.274;12.214;2024-03-29T16:32:24;4.28;;;1.20;;
19800;SDS011;10060;48.274;12.214;2024-03-29T16:35:25;3.30;;;1.55;;
19800;SDS011;10060;48.274;12.214;2024-03-29T16:38:28;3.80;;;1.10;;
19800;SDS011;10060;48.274;12.214;2024-03-29T16:41:31;6.63;;;1.00;;
19800;SDS011;10060;48.274;12.214;2024-03-29T16:44:32;7.57;;;1.80;;
19800;SDS011;10060;48.274;12.214;2024-03-29T16:47:35;7.32;;;2.50;;
19800;SDS011;10060;48.274;12.214;2024-03-29T16:50:36;8.73;;;2.40;;
19800;SDS011;10060;48.274;12.214;2024-03-29T16:53:39;17.40;;;2.83;;
19800;SDS011;10060;48.274;12.214;2024-03-29T16:56:42;14.60;;;2.60;;
19800;SDS011;10060;48.274;12.214;2024-03-29T16:59:45;13.73;;;2.80;;
19800;SDS011;10060;48.274;12.214;2024-03-29T17:02:48;16.67;;;2.67;;
19800;SDS011;10060;48.274;12.214;2024-03-29T17:05:50;17.63;;;4.43;;
19800;SDS011;10060;48.274;12.214;2024-03-29T17:08:52;17.15;;;4.57;;
19800;SDS011;10060;48.274;12.214;2024-03-29T17:11:55;24.60;;;4.95;;
19800;SDS011;10060;48.274;12.214;2024-03-29T17:14:58;23.55;;;4.20;;
19800;SDS011;10060;48.274;12.214;2024-03-29T17:17:59;21.60;;;4.63;;
19800;SDS011;10060;48.274;12.214;2024-03-29T17:21:01;24.55;;;4.68;;
19800;SDS011;10060;48.274;12.214;2024-03-29T17:24:03;25.08;;;4.55;;
19800;SDS011;10060;48.274;12.214;2024-03-29T17:27:07;27.50;;;5.05;;
19800;SDS011;10060;48.274;12.214;2024-03-29T17:30:09;27.58;;;5.72;;
19800;SDS011;10060;48.274;12.214;2024-03-29T17:33:11;40.60;;;6.13;;
19800;SDS011;10060;48.274;12.214;2024-03-29T17:36:13;39.17;;;7.60;;
19800;SDS011;10060;48.274;12.214;2024-03-29T17:39:14;42.40;;;8.45;;
19800;SDS011;10060;48.274;12.214;2024-03-29T17:42:19;52.47;;;8.43;;
19800;SDS011;10060;48.274;12.214;2024-03-29T17:45:22;56.45;;;9.27;;
19800;SDS011;10060;48.274;12.214;2024-03-29T17:48:23;55.85;;;9.50;;
19800;SDS011;10060;48.274;12.214;2024-03-29T17:51:28;58.63;;;10.07;;
19800;SDS011;10060;48.274;12.214;2024-03-29T17:54:29;71.22;;;13.45;;
19800;SDS011;10060;48.274;12.214;2024-03-29T17:57:33;58.67;;;9.43;;